Alanson, MI (49706)

6:51 PM EDT on April 26, 2017 (GMT -0400)
ME7833 | | Change Station

Elev 600 ft 45.42 °N, 84.79 °W | Updated 41 minutes ago

Mostly Cloudy
Mostly Cloudy
58.0 °F
Feels Like 58.0 °F
N
3.0
Wind Variable Wind from SW
Gusts 8.0 mph

Today
High -- | Low -- °F
--% Chance of Precip.
Yesterday
High -- | Low -- °F
Precip. -- in
Pressure 29.45 in
Visibility 7.0 miles
Clouds Mostly Cloudy 5000 ft
Mostly Cloudy 6500 ft
Mostly Cloudy 8000 ft
Dew Point 55 °F
Humidity 90%
Rainfall 0.03 in
Snow Depth Not available.
6:34 AM 8:39 PM
New Moon, 0% visible
METAR KMGN 262234Z AUTO 00000KT 7SM BKN050 BKN065 BKN080 12/12 A2945 RMK AO2 T01300127
Pressure 29.45 in
Visibility 7.0 miles
Clouds Mostly Cloudy 5000 ft
Mostly Cloudy 6500 ft
Mostly Cloudy 8000 ft
Dew Point 55 °F
Humidity 90%
Rainfall 0.03 in
Snow Depth Not available.
6:34 AM 8:39 PM
New Moon, 0% visible
METAR KMGN 262234Z AUTO 00000KT 7SM BKN050 BKN065 BKN080 12/12 A2945 RMK AO2 T01300127

Get Severe Weather Alerts

Thanks for signing up!

Be on the lookout for a verification email in your inbox.

You'll start receiving the daily forecast at 8 AM.

×

10-Day Weather Forecast

Almanac

Astronomy

Apr. 26, 2017 Rise Set
Actual Time
Civil Twilight
Nautical Twilight
Astronomical Twilight
Moon
Length of Visible Light
Length of Day
Tomorrow will be .
, % of the Moon is Illuminated

Today's Extremes

State Highs State Lows

Community

WunderPhotos

WunderBlog® & News

Nearby

Air Quality

  Air Quality AQ Index Pollutant
Not available.

Snow Depth

Station Depth Elevation

Earthquake Activity

City Distance Mag. Time & Date
Minimum magnitude displayed is 2.5.

Coastal Water Temperatures

Place Temperature

Stations

Nearby Weather Stations

Station Location Temp. Windchill Dew Point Humidity Wind Precip. Elev Updated Type
                   

Watches & Warnings

There are currently no watches in effect.